Time;durP1;ratioP1;P1;durP2;ratioP2;P2;SDS_P1;SDS_P2;PMS_P1;PMS_P2;Temp;Humidity;BMP_temperature;BMP_pressure;BME280_temperature;BME280_humidity;BME280_pressure;Samples;Min_cycle;Max_cycle;Signal;HPM_P1;HPM_P2
2022/10/04 00:00:36;;;;;;;13.32;6.43;;;12.80;99.90;;;;;;6201178;23;20075;-78
2022/10/04 00:03:35;;;;;;;10.43;6.32;;;12.80;99.90;;;;;;6226512;23;20012;-79
2022/10/04 00:06:02;;;;;;;11.00;6.50;;;12.60;99.90;;;;;;6227403;23;20213;-78
2022/10/04 00:08:50;;;;;;;13.02;6.45;;;12.70;99.90;;;;;;6251372;23;20012;-78
2022/10/04 00:11:28;;;;;;;14.10;7.00;;;12.60;99.90;;;;;;6252530;23;20086;-78
2022/10/04 00:13:57;;;;;;;10.52;7.07;;;12.90;99.90;;;;;;6252183;23;20190;-78
2022/10/04 00:16:30;;;;;;;9.57;6.50;;;12.70;99.90;;;;;;6227819;23;20016;-79
2022/10/04 00:19:02;;;;;;;14.60;7.10;;;12.60;99.90;;;;;;6226939;23;20020;-80
2022/10/04 00:21:51;;;;;;;13.00;7.30;;;12.60;99.90;;;;;;6251824;23;20043;-80
2022/10/04 00:24:21;;;;;;;11.43;6.93;;;12.80;99.90;;;;;;6226952;23;20016;-80
2022/10/04 00:27:55;;;;;;;;;;;;;;;;;;;;;
2022/10/04 00:38:37;;;;;;;13.00;7.20;;;12.90;99.90;;;;;;5931644;24;20258;-78
2022/10/04 00:41:48;;;;;;;10.95;6.85;;;12.90;99.90;;;;;;5944651;23;20046;-77
2022/10/04 00:44:58;;;;;;;15.93;7.55;;;12.60;99.90;;;;;;6251829;23;20020;-78
2022/10/04 00:48:02;;;;;;;10.63;6.63;;;12.80;99.90;;;;;;6181783;23;20012;-77
2022/10/04 00:51:17;;;;;;;11.57;6.90;;;12.90;99.90;;;;;;6108370;23;20485;-79
2022/10/04 00:53:52;;;;;;;13.52;7.15;;;12.70;99.90;;;;;;6147210;23;20054;-79
2022/10/04 00:56:26;;;;;;;11.90;7.00;;;12.70;99.90;;;;;;6226855;23;20012;-78
2022/10/04 00:59:01;;;;;;;13.43;7.28;;;12.70;99.90;;;;;;6227826;23;20061;-79
2022/10/04 01:01:27;;;;;;;;;;;12.50;99.90;;;;;;6227742;23;20028;-78
2022/10/04 01:10:53;;;;;;;;;;;;;;;;;;;;;
2022/10/04 01:13:36;;;;;;;13.45;7.22;;;12.90;99.90;;;;;;6254157;23;20070;-82
2022/10/04 01:16:50;;;;;;;10.93;7.45;;;13.30;99.90;;;;;;6254647;23;20015;-78
2022/10/04 01:19:30;;;;;;;17.92;8.43;;;12.90;99.90;;;;;;6215997;23;20063;-80
2022/10/04 01:22:40;;;;;;;14.90;8.13;;;12.70;99.90;;;;;;6253839;23;20016;-79
2022/10/04 01:25:32;;;;;;;17.08;8.38;;;12.70;99.90;;;;;;6088849;22;20069;-79
2022/10/04 01:27:58;;;;;;;16.33;9.23;;;12.30;99.90;;;;;;6227545;23;20016;-80
2022/10/04 01:30:31;;;;;;;15.43;8.77;;;12.40;99.90;;;;;;6179534;23;20241;-80
2022/10/04 01:32:57;;;;;;;14.73;8.70;;;12.70;99.90;;;;;;6228300;23;20008;-79
2022/10/04 01:35:23;;;;;;;14.25;8.40;;;12.40;99.90;;;;;;6228832;23;20019;-79
2022/10/04 01:38:17;;;;;;;16.88;8.23;;;12.40;99.90;;;;;;6203854;23;20071;-78
2022/10/04 01:40:53;;;;;;;16.48;9.45;;;11.40;99.90;;;;;;6217153;23;20239;-79
2022/10/04 01:43:26;;;;;;;20.80;9.63;;;12.50;99.90;;;;;;6228683;23;20279;-77
2022/10/04 01:46:00;;;;;;;14.35;8.35;;;12.60;99.90;;;;;;6252495;23;20080;-78
2022/10/04 01:48:35;;;;;;;13.02;8.45;;;12.40;99.90;;;;;;6227597;23;20237;-78
2022/10/04 01:51:52;;;;;;;;;;;;;;;;;;;;;
2022/10/04 01:54:59;;;;;;;16.15;8.73;;;12.50;99.90;;;;;;6153103;22;20062;-78
2022/10/04 01:57:34;;;;;;;11.07;8.13;;;12.70;99.90;;;;;;6227823;23;20225;-78
2022/10/04 02:00:05;;;;;;;14.30;7.90;;;12.50;99.90;;;;;;6226842;23;20038;-80
2022/10/04 02:02:39;;;;;;;12.90;9.07;;;12.50;99.90;;;;;;6227295;23;20015;-78
2022/10/04 02:05:15;;;;;;;19.80;9.65;;;12.40;99.90;;;;;;6252564;23;20012;-78
2022/10/04 02:07:41;;;;;;;13.77;8.68;;;12.60;99.90;;;;;;6227457;23;20008;-79
2022/10/04 02:10:17;;;;;;;15.55;8.65;;;12.60;99.90;;;;;;6203764;23;20016;-79
2022/10/04 02:12:47;;;;;;;17.70;9.80;;;12.50;99.90;;;;;;6227458;23;20533;-78
2022/10/04 02:15:13;;;;;;;14.20;9.20;;;12.60;99.90;;;;;;6227650;23;20040;-81
2022/10/04 02:17:41;;;;;;;18.38;9.02;;;12.70;99.90;;;;;;6252475;23;20012;-78
2022/10/04 02:20:18;;;;;;;14.32;8.82;;;12.50;99.90;;;;;;6203228;23;20008;-77
2022/10/04 02:22:48;;;;;;;14.15;8.68;;;12.70;99.90;;;;;;6228401;23;20012;-78
2022/10/04 02:25:35;;;;;;;20.55;10.15;;;12.40;99.90;;;;;;6227055;23;20038;-77
2022/10/04 02:28:02;;;;;;;15.68;8.52;;;12.70;99.90;;;;;;6229094;23;20644;-77
2022/10/04 02:30:28;;;;;;;20.30;10.07;;;12.70;99.90;;;;;;6227318;23;20071;-77
2022/10/04 02:32:58;;;;;;;17.13;7.93;;;12.50;99.90;;;;;;6202020;23;20061;-79
2022/10/04 02:35:37;;;;;;;14.00;8.00;;;11.30;99.90;;;;;;6226926;23;20219;-77
2022/10/04 02:38:18;;;;;;;11.75;7.30;;;12.40;99.90;;;;;;6251991;23;20086;-76
2022/10/04 02:40:59;;;;;;;11.93;8.25;;;13.30;99.90;;;;;;6227249;23;20019;-78
2022/10/04 02:43:44;;;;;;;12.50;7.38;;;12.50;99.90;;;;;;6227924;23;20018;-79
2022/10/04 02:46:30;;;;;;;14.55;7.55;;;12.20;99.90;;;;;;6226715;23;20012;-79
2022/10/04 02:49:04;;;;;;;13.68;7.65;;;10.80;99.90;;;;;;6226826;23;20357;-79
2022/10/04 02:51:45;;;;;;;15.00;8.25;;;12.40;99.90;;;;;;6227196;23;20008;-77
2022/10/04 02:54:29;;;;;;;15.60;8.50;;;12.40;99.90;;;;;;6228118;23;20083;-81
2022/10/04 02:56:56;;;;;;;15.90;9.05;;;12.30;99.90;;;;;;6226992;23;20008;-80
2022/10/04 02:59:23;;;;;;;14.25;8.27;;;12.30;99.90;;;;;;6253555;23;20036;-77
2022/10/04 03:01:56;;;;;;;16.45;8.98;;;12.40;99.90;;;;;;6227403;23;20031;-78
2022/10/04 03:04:37;;;;;;;18.17;9.35;;;12.40;99.90;;;;;;6226985;23;20008;-78
2022/10/04 03:07:06;;;;;;;16.55;9.20;;;12.20;99.90;;;;;;6252239;23;20316;-81
2022/10/04 03:09:51;;;;;;;17.58;8.45;;;12.40;99.90;;;;;;6227362;23;20077;-78
2022/10/04 03:16:04;;;;;;;16.58;8.90;;;12.20;99.90;;;;;;6232113;23;20073;-78
2022/10/04 03:18:31;;;;;;;19.17;8.43;;;11.50;99.90;;;;;;6226617;23;20016;-78
2022/10/04 03:21:01;;;;;;;14.98;8.45;;;12.10;99.90;;;;;;6201697;23;20299;-78
2022/10/04 03:23:49;;;;;;;11.60;8.13;;;12.20;99.90;;;;;;6253009;23;20027;-80
2022/10/04 03:26:32;;;;;;;16.67;7.80;;;12.30;99.90;;;;;;6227315;23;20067;-79
2022/10/04 03:28:59;;;;;;;14.15;7.88;;;12.30;99.90;;;;;;6227809;23;20028;-79
2022/10/04 03:31:26;;;;;;;11.05;7.63;;;12.50;99.90;;;;;;6226144;23;20015;-81
2022/10/04 03:33:56;;;;;;;14.13;8.20;;;12.30;99.90;;;;;;6253157;23;20008;-80
2022/10/04 03:36:24;;;;;;;15.02;8.23;;;12.40;99.90;;;;;;6253128;23;20020;-79
2022/10/04 03:38:54;;;;;;;13.82;8.02;;;12.20;99.90;;;;;;6226485;23;20321;-79
2022/10/04 03:41:21;;;;;;;17.00;7.97;;;12.40;99.90;;;;;;6252558;23;20011;-80
2022/10/04 03:47:34;;;;;;;13.32;8.27;;;12.20;99.90;;;;;;6254057;23;20252;-77
2022/10/04 03:50:11;;;;;;;16.02;8.82;;;12.20;99.90;;;;;;6225629;23;20015;-76
2022/10/04 03:52:42;;;;;;;10.85;7.35;;;12.20;99.90;;;;;;6227157;23;20014;-78
2022/10/04 03:55:11;;;;;;;18.10;8.57;;;12.20;99.90;;;;;;6252686;23;20046;-76
2022/10/04 03:57:37;;;;;;;14.60;8.27;;;12.00;99.90;;;;;;6226472;23;20222;-78
2022/10/04 04:00:05;;;;;;;13.32;7.82;;;12.10;99.90;;;;;;6200879;23;20023;-78
2022/10/04 04:05:48;;;;;;;13.88;8.68;;;11.90;99.90;;;;;;6249522;23;20050;-78
2022/10/04 04:08:33;;;;;;;15.15;9.07;;;11.90;99.90;;;;;;6252253;23;20063;-77
2022/10/04 04:11:14;;;;;;;18.27;10.40;;;12.20;99.90;;;;;;6226699;23;20008;-76
2022/10/04 04:14:21;;;;;;;19.67;9.70;;;12.20;99.90;;;;;;6226565;23;20432;-77
2022/10/04 04:17:19;;;;;;;15.93;8.88;;;12.00;99.90;;;;;;6226749;23;20075;-77
2022/10/04 04:27:10;;;;;;;17.15;9.25;;;11.30;99.90;;;;;;6038420;23;20090;-79
2022/10/04 04:29:52;;;;;;;14.10;8.88;;;11.30;99.90;;;;;;6081471;23;20013;-78
2022/10/04 04:35:54;;;;;;;14.48;8.70;;;12.30;99.90;;;;;;6190738;23;20020;-78
2022/10/04 04:38:26;;;;;;;15.10;9.38;;;11.90;99.90;;;;;;6196457;23;20035;-75
2022/10/04 04:40:54;;;;;;;16.58;9.40;;;12.00;99.90;;;;;;6171567;23;20009;-75
2022/10/04 04:43:24;;;;;;;14.38;9.73;;;12.10;99.90;;;;;;6171849;23;20024;-78
2022/10/04 04:46:12;;;;;;;20.15;10.52;;;11.90;99.90;;;;;;6172647;23;20060;-75
2022/10/04 04:48:56;;;;;;;12.57;8.50;;;10.80;99.90;;;;;;6178670;23;20016;-78
2022/10/04 04:51:25;;;;;;;13.55;9.93;;;12.00;99.90;;;;;;6173612;23;20013;-80
2022/10/04 04:53:55;;;;;;;13.48;10.40;;;12.00;99.90;;;;;;6173406;23;20059;-77
2022/10/04 04:56:47;;;;;;;12.55;9.23;;;13.40;99.90;;;;;;6198462;23;20020;-77
2022/10/04 04:59:26;;;;;;;15.90;9.00;;;12.10;99.90;;;;;;6158871;23;20012;-80
2022/10/04 05:09:37;;;;;;;14.63;9.98;;;11.90;99.90;;;;;;6094349;23;20071;-79
2022/10/04 05:12:16;;;;;;;16.85;9.45;;;11.90;99.90;;;;;;6148857;23;20008;-77
2022/10/04 05:14:53;;;;;;;12.43;9.75;;;11.10;99.90;;;;;;6173612;23;20241;-78
2022/10/04 05:17:23;;;;;;;14.32;9.73;;;11.90;99.90;;;;;;6198078;23;20091;-77
2022/10/04 05:19:56;;;;;;;14.93;10.27;;;11.70;99.90;;;;;;6173529;23;20067;-80
2022/10/04 05:22:25;;;;;;;16.23;10.07;;;11.80;99.90;;;;;;6173004;23;20013;-77
2022/10/04 05:25:24;;;;;;;17.38;11.40;;;11.60;99.90;;;;;;6148146;23;20020;-76
2022/10/04 05:27:50;;;;;;;15.48;11.38;;;11.60;99.90;;;;;;6253576;23;20218;-79
2022/10/04 05:30:40;;;;;;;18.38;10.13;;;11.60;99.90;;;;;;6229743;23;20008;-77
2022/10/04 05:33:15;;;;;;;18.30;10.90;;;11.70;99.90;;;;;;6252953;23;20008;-77
2022/10/04 05:35:55;;;;;;;17.92;10.88;;;11.50;99.90;;;;;;6254940;23;20012;-77
2022/10/04 05:38:25;;;;;;;15.88;10.48;;;11.70;99.90;;;;;;6229701;23;20054;-76
2022/10/04 05:41:13;;;;;;;20.23;11.10;;;11.60;99.90;;;;;;6228537;23;20067;-79
2022/10/04 05:44:17;;;;;;;17.80;11.57;;;11.40;99.90;;;;;;6251987;23;20054;-76
2022/10/04 05:47:05;;;;;;;20.63;13.30;;;11.40;99.90;;;;;;6229436;23;20318;-78
2022/10/04 05:49:42;;;;;;;20.77;13.10;;;12.70;99.90;;;;;;6227322;23;20071;-76
2022/10/04 05:52:36;;;;;;;20.75;12.93;;;11.40;99.90;;;;;;6228416;23;20066;-79
2022/10/04 05:55:11;;;;;;;23.15;14.30;;;11.40;99.90;;;;;;6221876;23;20018;-78
2022/10/04 05:57:59;;;;;;;19.90;14.07;;;11.40;99.90;;;;;;6227758;23;20012;-77
2022/10/04 06:01:12;;;;;;;21.10;12.77;;;11.60;99.90;;;;;;6131722;23;20025;-76
2022/10/04 06:07:20;;;;;;;19.65;12.93;;;11.60;99.90;;;;;;6212918;23;20020;-80
2022/10/04 06:10:11;;;;;;;20.70;12.43;;;11.30;99.90;;;;;;6198703;23;20020;-79
2022/10/04 06:12:43;;;;;;;19.38;13.57;;;11.30;99.90;;;;;;6226302;23;20028;-79
2022/10/04 06:15:50;;;;;;;16.85;12.63;;;11.40;99.90;;;;;;6221941;23;20004;-77
2022/10/04 06:18:56;;;;;;;;;;;;;;;;;;;;;
2022/10/04 06:21:30;;;;;;;18.67;12.05;;;11.50;99.90;;;;;;6226556;23;20649;-79
2022/10/04 06:24:01;;;;;;;17.10;10.43;;;11.50;99.90;;;;;;6200632;23;20008;-75
2022/10/04 06:27:07;;;;;;;19.00;10.38;;;11.40;99.90;;;;;;6224856;23;20024;-80
2022/10/04 06:29:52;;;;;;;15.55;10.57;;;11.70;99.90;;;;;;6201781;23;20028;-74
2022/10/04 06:32:48;;;;;;;18.40;11.13;;;11.50;99.90;;;;;;6227981;23;20348;-76
2022/10/04 06:35:26;;;;;;;19.15;11.95;;;11.60;99.90;;;;;;6225678;23;20014;-79
2022/10/04 06:38:19;;;;;;;16.05;10.77;;;11.80;99.90;;;;;;6250443;23;20023;-79
2022/10/04 06:41:03;;;;;;;15.88;10.45;;;11.80;99.90;;;;;;6225543;23;20016;-77
2022/10/04 06:43:31;;;;;;;14.63;9.75;;;12.00;99.90;;;;;;6225940;23;20114;-78
2022/10/04 06:46:06;;;;;;;18.45;9.88;;;12.00;99.90;;;;;;6224028;23;20040;-77
2022/10/04 06:48:44;;;;;;;14.95;9.85;;;12.20;99.90;;;;;;6225489;23;20016;-80
2022/10/04 06:52:08;;;;;;;18.48;9.95;;;12.20;99.90;;;;;;6251316;23;20266;-77
2022/10/04 06:54:41;;;;;;;15.15;8.82;;;12.30;99.90;;;;;;6227125;23;20024;-73
2022/10/04 06:57:31;;;;;;;12.18;9.15;;;12.60;99.90;;;;;;6251176;23;20019;-76
2022/10/04 07:00:20;;;;;;;14.43;9.23;;;12.60;99.90;;;;;;6225463;23;20203;-73
2022/10/04 07:02:57;;;;;;;12.65;9.00;;;12.50;99.90;;;;;;6250708;23;20094;-74
2022/10/04 07:05:29;;;;;;;12.48;8.18;;;12.70;99.90;;;;;;6223895;23;20090;-73
2022/10/04 07:08:29;;;;;;;12.43;8.00;;;12.80;99.90;;;;;;6250763;23;20191;-79
2022/10/04 07:11:01;;;;;;;12.55;7.85;;;12.80;99.90;;;;;;6250634;23;20295;-78
2022/10/04 07:13:39;;;;;;;15.50;8.68;;;12.80;99.90;;;;;;6251608;23;20134;-78
2022/10/04 07:16:23;;;;;;;11.88;8.38;;;12.80;99.90;;;;;;6222881;23;20067;-77
2022/10/04 07:19:11;;;;;;;10.80;7.97;;;13.10;99.90;;;;;;6251772;23;20023;-77
2022/10/04 07:21:48;;;;;;;12.35;8.40;;;13.00;99.90;;;;;;6251669;23;20075;-77
2022/10/04 07:24:37;;;;;;;15.05;8.82;;;13.20;99.90;;;;;;6224983;23;20039;-75
2022/10/04 07:27:08;;;;;;;13.40;8.00;;;13.20;99.90;;;;;;6224746;23;20016;-77
2022/10/04 07:29:40;;;;;;;10.93;8.02;;;13.10;99.90;;;;;;6250928;23;20027;-79
2022/10/04 07:32:21;;;;;;;11.88;8.60;;;12.90;99.90;;;;;;6250821;23;20016;-78
2022/10/04 07:35:01;;;;;;;15.13;9.07;;;13.00;99.90;;;;;;6252698;23;20244;-79
2022/10/04 07:37:32;;;;;;;13.30;9.05;;;12.80;99.90;;;;;;6253183;23;20016;-76
2022/10/04 07:40:16;;;;;;;14.73;10.07;;;12.70;99.90;;;;;;6227286;23;20012;-75
2022/10/04 07:42:52;;;;;;;12.98;9.63;;;12.70;99.90;;;;;;6252240;23;20130;-76
2022/10/04 07:45:20;;;;;;;15.82;10.73;;;12.80;99.90;;;;;;6226709;23;20012;-75
2022/10/04 07:47:46;;;;;;;15.80;9.30;;;13.00;99.90;;;;;;6227696;23;20016;-79
2022/10/04 07:50:19;;;;;;;14.82;9.57;;;13.20;99.90;;;;;;6224047;23;20023;-78
2022/10/04 07:52:49;;;;;;;15.88;9.32;;;13.20;99.90;;;;;;6252174;23;20008;-80
2022/10/04 07:55:40;;;;;;;14.05;8.65;;;13.50;99.90;;;;;;6253143;23;20012;-80
2022/10/04 07:58:26;;;;;;;16.75;9.80;;;13.30;99.90;;;;;;6227761;23;20012;-79
2022/10/04 08:01:12;;;;;;;13.15;9.10;;;13.40;99.90;;;;;;6226499;23;20020;-79
2022/10/04 08:08:19;;;;;;;19.00;10.95;;;13.30;99.90;;;;;;6190398;23;20474;-79
2022/10/04 08:15:18;;;;;;;15.20;10.48;;;12.30;99.90;;;;;;6049120;23;20019;-80
2022/10/04 08:22:26;;;;;;;12.88;10.15;;;12.30;99.90;;;;;;5977611;23;20162;-79
2022/10/04 08:33:05;;;;;;;14.27;10.60;;;13.10;99.90;;;;;;5823794;24;20027;-80
2022/10/04 08:36:07;;;;;;;17.35;10.70;;;13.40;99.90;;;;;;5843877;24;20436;-80
2022/10/04 08:39:00;;;;;;;17.65;11.07;;;13.40;99.90;;;;;;5924270;24;20015;-80
2022/10/04 08:42:16;;;;;;;19.83;11.15;;;13.40;99.90;;;;;;5973973;23;20020;-80
2022/10/04 08:45:21;;;;;;;14.13;9.15;;;12.80;99.90;;;;;;6110836;23;20005;-80
2022/10/04 08:48:39;;;;;;;;;;;;;;;;;;;;;
2022/10/04 08:52:08;;;;;;;18.85;11.82;;;13.10;99.90;;;;;;6135641;23;20098;-80
2022/10/04 08:55:20;;;;;;;;;;;;;;;;;;;;;
2022/10/04 09:03:06;;;;;;;;;;;;;;;;;;;;;
2022/10/04 09:06:24;;;;;;;18.02;8.90;;;14.60;99.90;;;;;;6160217;23;20025;-79
2022/10/04 09:09:33;;;;;;;14.13;9.70;;;14.30;99.90;;;;;;6201371;23;20047;-80
2022/10/04 09:11:59;;;;;;;11.88;8.77;;;13.40;99.90;;;;;;6240693;23;20008;-80
2022/10/04 09:15:04;;;;;;;12.38;8.38;;;14.40;99.90;;;;;;6226546;23;20008;-81
2022/10/04 09:18:27;;;;;;;;;;;;;;;;;;;;;
2022/10/04 09:21:21;;;;;;;13.40;7.95;;;14.70;99.90;;;;;;6240095;23;20043;-80
2022/10/04 09:23:59;;;;;;;14.18;7.53;;;14.80;99.90;;;;;;6251922;23;20310;-80
2022/10/04 09:26:33;;;;;;;10.30;7.30;;;13.90;99.90;;;;;;6201861;23;20058;-80
2022/10/04 09:29:34;;;;;;;9.95;6.43;;;15.10;99.90;;;;;;6253130;23;20016;-80
2022/10/04 09:32:12;;;;;;;11.82;8.27;;;15.10;99.90;;;;;;6253866;23;20067;-78
2022/10/04 09:35:02;;;;;;;10.52;6.43;;;15.20;99.90;;;;;;6228333;23;20019;-81
2022/10/04 09:37:47;;;;;;;9.73;6.50;;;15.20;99.90;;;;;;6229028;23;20180;-78
2022/10/04 09:40:30;;;;;;;12.23;5.43;;;15.30;99.90;;;;;;6227115;23;20012;-79
2022/10/04 09:43:16;;;;;;;7.35;5.00;;;15.60;99.90;;;;;;6227573;23;20027;-81
2022/10/04 09:46:06;;;;;;;9.82;5.57;;;15.80;99.90;;;;;;6226478;23;20091;-81
2022/10/04 09:48:41;;;;;;;11.63;5.45;;;15.80;99.90;;;;;;6227187;23;20060;-78
2022/10/04 09:51:28;;;;;;;9.80;5.78;;;16.20;99.90;;;;;;6253318;23;20008;-82
2022/10/04 09:54:33;;;;;;;9.10;5.30;;;16.50;99.90;;;;;;6227872;23;20016;-80
2022/10/04 09:57:45;;;;;;;7.38;4.82;;;16.30;99.90;;;;;;6226797;23;20039;-80
2022/10/04 10:04:27;;;;;;;7.63;4.63;;;16.10;99.90;;;;;;6164908;23;20060;-81
2022/10/04 10:07:32;;;;;;;9.82;4.95;;;15.60;99.90;;;;;;6227575;23;20102;-80
2022/10/04 10:16:28;;;;;;;6.72;3.88;;;15.90;99.90;;;;;;6252490;23;20012;-79
2022/10/04 10:19:15;;;;;;;8.20;5.35;;;16.00;99.90;;;;;;6227506;23;20012;-81
2022/10/04 10:22:10;;;;;;;9.13;4.47;;;16.00;99.90;;;;;;6227076;23;20023;-80
2022/10/04 10:25:06;;;;;;;9.15;4.95;;;15.00;99.90;;;;;;6227189;23;20008;-82
2022/10/04 10:27:36;;;;;;;8.05;5.07;;;16.10;99.90;;;;;;6226893;23;20016;-80
2022/10/04 10:30:21;;;;;;;7.78;4.80;;;16.10;99.90;;;;;;6226928;23;20065;-80
2022/10/04 10:32:53;;;;;;;8.05;5.13;;;16.20;99.90;;;;;;6225965;23;20048;-79
2022/10/04 10:36:06;;;;;;;6.90;4.53;;;16.20;99.90;;;;;;6226142;23;20027;-78
2022/10/04 10:38:53;;;;;;;10.50;5.13;;;16.20;99.90;;;;;;6238570;23;20016;-79
2022/10/04 10:41:51;;;;;;;10.32;5.28;;;16.10;99.90;;;;;;6226564;23;20026;-81
2022/10/04 10:44:45;;;;;;;7.65;4.03;;;16.10;99.90;;;;;;6251518;23;20344;-78
2022/10/04 10:47:13;;;;;;;9.15;5.15;;;16.10;99.90;;;;;;6226644;23;20020;-81
2022/10/04 10:49:45;;;;;;;9.38;4.50;;;16.10;99.90;;;;;;6226186;23;20015;-78
2022/10/04 10:52:24;;;;;;;7.65;4.45;;;16.20;99.90;;;;;;6251337;23;20019;-78
2022/10/04 10:55:40;;;;;;;8.20;3.67;;;16.10;99.90;;;;;;6250531;23;20019;-76
2022/10/04 10:58:05;;;;;;;6.30;3.95;;;16.10;99.90;;;;;;6239680;23;20012;-75
2022/10/04 11:00:56;;;;;;;5.60;3.90;;;16.20;99.90;;;;;;6250136;23;20083;-76
2022/10/04 11:03:21;;;;;;;;;;;16.30;99.90;;;;;;6252824;23;20012;-75
2022/10/04 11:06:28;;;;;;;6.85;3.83;;;16.30;99.90;;;;;;6251253;23;19926;-76
2022/10/04 11:09:26;;;;;;;7.55;3.85;;;16.40;99.90;;;;;;6194791;23;20171;-76
2022/10/04 11:12:20;;;;;;;7.25;3.85;;;16.30;99.90;;;;;;6252195;23;20240;-78
2022/10/04 11:15:14;;;;;;;7.50;4.15;;;16.30;99.90;;;;;;6226806;23;20011;-76
2022/10/04 11:17:42;;;;;;;7.75;4.47;;;16.40;99.90;;;;;;6226817;23;20019;-77
2022/10/04 11:20:26;;;;;;;8.85;4.18;;;16.40;99.90;;;;;;6225763;23;20046;-76
2022/10/04 11:23:16;;;;;;;7.55;4.18;;;16.40;99.90;;;;;;6226649;23;20020;-76
2022/10/04 11:25:56;;;;;;;9.77;3.78;;;16.60;99.90;;;;;;6225710;23;20086;-77
2022/10/04 11:28:34;;;;;;;9.60;4.10;;;16.50;99.90;;;;;;6250826;23;20031;-78
2022/10/04 11:31:16;;;;;;;7.35;4.68;;;16.30;99.90;;;;;;6227008;23;20059;-77
2022/10/04 11:34:11;;;;;;;7.72;4.28;;;16.30;99.90;;;;;;6251522;23;20015;-76
2022/10/04 11:37:05;;;;;;;5.45;3.92;;;16.30;99.90;;;;;;6251730;23;20039;-77
2022/10/04 11:39:46;;;;;;;7.63;4.53;;;16.20;99.90;;;;;;6226839;23;20012;-77
2022/10/04 11:42:19;;;;;;;6.93;4.28;;;16.30;99.90;;;;;;6251725;23;20352;-77
2022/10/04 11:45:21;;;;;;;9.50;4.18;;;16.40;99.90;;;;;;6251688;23;20067;-78
2022/10/04 11:48:16;;;;;;;10.93;4.40;;;16.40;99.90;;;;;;6199995;23;20242;-76
2022/10/04 11:50:59;;;;;;;6.05;4.55;;;16.50;99.90;;;;;;6120026;22;20024;-76
2022/10/04 11:53:38;;;;;;;8.00;4.35;;;16.30;99.90;;;;;;6250698;23;20004;-77
2022/10/04 11:56:32;;;;;;;7.97;4.20;;;16.40;99.90;;;;;;6226247;23;20015;-75
2022/10/04 11:59:10;;;;;;;8.35;4.70;;;16.30;99.90;;;;;;6226134;23;20046;-74
2022/10/04 12:02:01;;;;;;;5.97;3.80;;;16.50;99.90;;;;;;6251121;23;20062;-77
2022/10/04 12:04:37;;;;;;;8.13;4.35;;;16.40;99.90;;;;;;6225729;23;20075;-76
2022/10/04 12:07:09;;;;;;;5.45;4.22;;;16.50;99.90;;;;;;6225598;23;20016;-77
2022/10/04 12:09:48;;;;;;;6.20;3.83;;;16.40;99.90;;;;;;6250752;23;20044;-76
2022/10/04 12:12:46;;;;;;;6.88;3.50;;;16.50;99.90;;;;;;6226138;23;20378;-76
2022/10/04 12:15:31;;;;;;;8.27;4.43;;;16.40;99.90;;;;;;6196720;23;20071;-77
2022/10/04 12:18:34;;;;;;;10.35;4.20;;;16.60;99.90;;;;;;6251334;23;20019;-77
2022/10/04 12:21:44;;;;;;;7.00;4.45;;;16.50;99.90;;;;;;6226392;23;20020;-76
2022/10/04 12:24:48;;;;;;;6.60;4.25;;;16.60;99.90;;;;;;6250753;23;20024;-75
2022/10/04 12:27:25;;;;;;;10.68;4.45;;;16.60;99.90;;;;;;6224850;23;20024;-75
2022/10/04 12:30:21;;;;;;;11.68;4.13;;;16.70;99.90;;;;;;6250402;23;20085;-76
2022/10/04 12:33:23;;;;;;;7.00;4.10;;;16.50;99.90;;;;;;6226107;23;20137;-75
2022/10/04 12:36:07;;;;;;;6.45;3.60;;;16.60;99.90;;;;;;6225866;23;20035;-75
2022/10/04 12:38:53;;;;;;;7.80;3.77;;;16.60;99.90;;;;;;6250377;23;20218;-75
2022/10/04 12:41:32;;;;;;;7.20;3.88;;;16.60;99.90;;;;;;6225930;23;20016;-76
2022/10/04 12:44:16;;;;;;;9.00;3.60;;;16.50;99.90;;;;;;6226155;23;20034;-76
2022/10/04 12:47:19;;;;;;;7.30;3.50;;;16.60;99.90;;;;;;6250049;23;20016;-76
2022/10/04 12:49:48;;;;;;;6.45;3.72;;;16.50;99.90;;;;;;6251124;23;20016;-76
2022/10/04 12:52:21;;;;;;;7.53;3.85;;;16.70;99.90;;;;;;6251119;23;20015;-78
2022/10/04 12:55:17;;;;;;;6.30;3.15;;;16.80;99.90;;;;;;6225308;23;20902;-75
2022/10/04 12:57:46;;;;;;;;;;;16.70;99.90;;;;;;6225633;23;20019;-77
2022/10/04 13:00:19;;;;;;;7.40;4.78;;;16.60;99.90;;;;;;6225145;23;19907;-75
2022/10/04 13:03:07;;;;;;;6.35;3.85;;;16.60;99.90;;;;;;6251730;23;20047;-75
2022/10/04 13:05:32;;;;;;;5.32;3.42;;;16.50;99.90;;;;;;6226842;23;20020;-76
2022/10/04 13:08:15;;;;;;;8.32;4.28;;;16.70;99.90;;;;;;6227903;23;20306;-76
2022/10/04 13:10:51;;;;;;;6.28;4.35;;;16.50;99.90;;;;;;6227380;23;20205;-75
2022/10/04 13:13:48;;;;;;;8.23;4.30;;;16.70;99.90;;;;;;6252604;23;20008;-77
2022/10/04 13:16:37;;;;;;;8.32;3.92;;;16.70;99.90;;;;;;6252875;23;20012;-75
2022/10/04 13:19:24;;;;;;;7.25;4.72;;;16.70;99.90;;;;;;6252912;23;20020;-73
2022/10/04 13:21:59;;;;;;;7.25;4.53;;;16.60;99.90;;;;;;6252753;23;20332;-76
2022/10/04 13:24:30;;;;;;;6.85;4.13;;;16.70;99.90;;;;;;6252249;23;20289;-75
2022/10/04 13:27:06;;;;;;;6.90;4.38;;;16.60;99.90;;;;;;6253353;23;20067;-76
2022/10/04 13:29:55;;;;;;;6.45;4.55;;;16.70;99.90;;;;;;6227282;23;20031;-76
2022/10/04 13:32:47;;;;;;;8.77;5.15;;;16.60;99.90;;;;;;6233168;23;20039;-75
2022/10/04 13:35:26;;;;;;;7.05;5.20;;;16.60;99.90;;;;;;6227009;23;20072;-76
2022/10/04 13:38:48;;;;;;;6.60;4.72;;;16.60;99.90;;;;;;6227409;23;20027;-75
2022/10/04 13:41:19;;;;;;;9.82;5.35;;;16.70;99.90;;;;;;6170164;23;20069;-75
2022/10/04 13:44:22;;;;;;;8.27;5.40;;;16.70;99.90;;;;;;6227345;23;20032;-74
2022/10/04 13:47:09;;;;;;;9.57;5.30;;;16.70;99.90;;;;;;6252741;23;20612;-74
2022/10/04 13:49:56;;;;;;;8.77;5.00;;;16.80;99.90;;;;;;6226379;23;20019;-75
2022/10/04 13:58:46;;;;;;;5.47;4.55;;;16.60;99.90;;;;;;6252747;23;20023;-76
2022/10/04 14:01:39;;;;;;;9.95;5.60;;;16.70;99.90;;;;;;6226292;23;20275;-77
2022/10/04 14:04:23;;;;;;;9.60;5.22;;;18.20;99.90;;;;;;6227669;23;20020;-77
2022/10/04 14:07:12;;;;;;;11.25;5.93;;;16.70;99.90;;;;;;6227683;23;20206;-77
2022/10/04 14:10:01;;;;;;;8.50;5.68;;;16.70;99.90;;;;;;6252372;23;20054;-77
2022/10/04 14:12:50;;;;;;;9.75;5.07;;;16.60;99.90;;;;;;6252851;22;20039;-77
2022/10/04 14:15:24;;;;;;;9.07;4.80;;;16.70;99.90;;;;;;6182602;23;20302;-77
2022/10/04 14:18:12;;;;;;;8.47;5.57;;;16.70;99.90;;;;;;6226958;23;20027;-77
2022/10/04 14:20:56;;;;;;;9.50;5.20;;;16.70;99.90;;;;;;6227016;23;20251;-77
2022/10/04 14:23:44;;;;;;;8.68;4.65;;;16.70;99.90;;;;;;6251918;23;20012;-77
2022/10/04 14:26:47;;;;;;;7.00;4.90;;;16.70;99.90;;;;;;6227484;23;20020;-78
2022/10/04 14:29:50;;;;;;;7.85;4.70;;;16.60;99.90;;;;;;6227356;23;20082;-77
2022/10/04 14:32:57;;;;;;;7.70;4.07;;;16.70;99.90;;;;;;6252363;23;20008;-78
2022/10/04 14:35:44;;;;;;;6.85;4.20;;;16.70;99.90;;;;;;6251505;23;20071;-78
2022/10/04 14:38:31;;;;;;;9.00;4.63;;;16.70;99.90;;;;;;6225917;23;20019;-77
2022/10/04 14:41:15;;;;;;;7.18;4.28;;;16.70;99.90;;;;;;6226735;23;20026;-78
2022/10/04 14:44:09;;;;;;;8.10;5.00;;;16.60;99.90;;;;;;6250933;23;20114;-79
2022/10/04 14:47:12;;;;;;;9.40;4.55;;;16.60;99.90;;;;;;6225451;23;20094;-78
2022/10/04 14:50:26;;;;;;;8.23;4.50;;;16.60;99.90;;;;;;6224384;23;20302;-78
2022/10/04 14:53:13;;;;;;;6.50;4.00;;;16.60;99.90;;;;;;6194342;23;20007;-77
2022/10/04 14:55:53;;;;;;;8.52;4.45;;;16.50;99.90;;;;;;6250819;23;20763;-77
2022/10/04 14:59:01;;;;;;;5.63;4.22;;;16.50;99.90;;;;;;6251591;23;20012;-77
2022/10/04 15:01:28;;;;;;;7.82;3.88;;;16.50;99.90;;;;;;6200606;23;20020;-75
2022/10/04 15:04:18;;;;;;;8.88;4.13;;;16.50;99.90;;;;;;6251941;23;20194;-77
2022/10/04 15:06:59;;;;;;;8.48;4.30;;;16.50;99.90;;;;;;6250169;23;20194;-76
2022/10/04 15:09:56;;;;;;;5.78;3.85;;;16.50;99.90;;;;;;6250355;23;20039;-75
2022/10/04 15:12:44;;;;;;;6.10;3.60;;;16.40;99.90;;;;;;6249592;23;20014;-76
2022/10/04 15:15:13;;;;;;;4.88;3.88;;;16.30;99.90;;;;;;6251977;23;20011;-75
2022/10/04 15:17:53;;;;;;;5.40;3.22;;;16.30;99.90;;;;;;6252333;23;20012;-75
2022/10/04 15:21:17;;;;;;;5.40;3.15;;;16.20;99.90;;;;;;6227279;23;20200;-76
2022/10/04 15:23:49;;;;;;;5.55;3.00;;;16.20;99.90;;;;;;6223084;23;20016;-76
2022/10/04 15:26:31;;;;;;;6.45;2.72;;;16.10;99.90;;;;;;6227410;23;20015;-76
2022/10/04 15:29:33;;;;;;;4.38;2.30;;;16.60;99.90;;;;;;6196905;23;20055;-75
2022/10/04 15:32:20;;;;;;;3.90;2.22;;;16.00;99.90;;;;;;6196385;23;20068;-75
2022/10/04 15:35:14;;;;;;;5.35;2.88;;;15.90;99.90;;;;;;6196427;23;20023;-75
2022/10/04 15:37:46;;;;;;;5.85;3.22;;;15.90;99.90;;;;;;6196430;23;20016;-75
2022/10/04 15:40:39;;;;;;;5.00;2.80;;;15.90;99.90;;;;;;6196744;23;20325;-76
2022/10/04 15:43:18;;;;;;;3.80;2.70;;;15.90;99.90;;;;;;6196282;23;20031;-76
2022/10/04 15:45:52;;;;;;;6.68;3.40;;;15.90;99.90;;;;;;6222226;23;20016;-75
2022/10/04 15:48:37;;;;;;;5.70;2.83;;;15.90;99.90;;;;;;6196839;23;20016;-76